Time;durP1;ratioP1;P1;durP2;ratioP2;P2;SDS_P1;SDS_P2;PMS_P1;PMS_P2;Temp;Humidity;BMP_temperature;BMP_pressure;BME280_temperature;BME280_humidity;BME280_pressure;Samples;Min_cycle;Max_cycle;Signal;HPM_P1;HPM_P2
2022/12/26 00:00:23;;;;;;;123.27;21.27;;;3.10;99.90;2.50;100314;;;;561084;253;24193;-84
2022/12/26 00:02:47;;;;;;;93.23;17.77;;;3.10;99.90;2.60;100296;;;;558017;253;24157;-84
2022/12/26 00:05:15;;;;;;;62.73;14.33;;;3.10;99.90;2.50;100290;;;;569053;253;24109;-86
2022/12/26 00:07:47;;;;;;;50.60;15.70;;;3.10;99.90;2.50;100298;;;;560658;253;24127;-86
2022/12/26 00:10:16;;;;;;;70.83;18.33;;;3.10;99.90;2.50;100295;;;;559508;253;24121;-84
2022/12/26 00:12:40;;;;;;;41.27;16.27;;;3.10;99.90;2.50;100294;;;;568292;249;24130;-83
2022/12/26 00:15:08;;;;;;;67.60;17.77;;;3.10;99.90;2.50;100290;;;;567933;253;24111;-84
2022/12/26 00:17:39;;;;;;;62.53;18.23;;;3.10;99.90;2.50;100290;;;;559578;253;24117;-84
2022/12/26 00:20:04;;;;;;;70.70;19.57;;;3.10;99.90;2.50;100289;;;;559314;253;24135;-86
2022/12/26 00:22:36;;;;;;;57.80;16.03;;;3.20;99.90;2.50;100288;;;;559501;253;24131;-85
2022/12/26 00:25:07;;;;;;;205.77;30.50;;;3.10;99.90;2.50;100285;;;;563008;247;35458;-84
2022/12/26 00:27:32;;;;;;;96.47;20.77;;;3.20;99.90;2.60;100288;;;;559252;253;24125;-84
2022/12/26 00:30:03;;;;;;;85.60;19.23;;;3.20;99.90;2.60;100286;;;;559273;253;24149;-85
2022/12/26 00:32:28;;;;;;;71.20;16.33;;;3.20;99.90;2.60;100291;;;;567863;253;24135;-84
2022/12/26 00:34:56;;;;;;;65.83;16.43;;;3.20;99.90;2.60;100279;;;;559360;253;24115;-82
2022/12/26 00:37:24;;;;;;;41.97;16.43;;;3.20;99.90;2.60;100274;;;;559067;253;24128;-84
2022/12/26 00:39:52;;;;;;;58.70;16.27;;;3.20;99.90;2.60;100261;;;;559561;253;24170;-84
2022/12/26 00:42:24;;;;;;;45.57;13.30;;;3.20;99.90;2.60;100257;;;;567850;253;24160;-84
2022/12/26 00:44:51;;;;;;;70.93;16.70;;;3.20;99.90;2.60;100253;;;;556997;253;24189;-83
2022/12/26 00:47:16;;;;;;;56.50;13.57;;;3.20;99.90;2.60;100248;;;;559542;253;24159;-87
2022/12/26 00:49:47;;;;;;;194.50;28.73;;;3.20;99.90;2.60;100256;;;;564639;251;35457;-83
2022/12/26 00:52:18;;;;;;;90.83;19.63;;;3.20;99.90;2.60;100243;;;;569270;252;24132;-83
2022/12/26 00:54:43;;;;;;;61.40;16.53;;;3.20;99.90;2.60;100240;;;;560318;252;24135;-84
2022/12/26 00:57:15;;;;;;;47.50;14.80;;;3.20;99.90;2.70;100232;;;;560693;253;24105;-84
2022/12/26 00:59:42;;;;;;;46.73;13.97;;;3.30;99.90;2.60;100226;;;;560522;253;25488;-85
2022/12/26 01:05:06;;;;;;;57.73;15.10;;;3.30;99.90;2.60;100217;;;;568699;252;24138;-85
2022/12/26 01:07:30;;;;;;;61.83;16.20;;;3.30;99.90;2.70;100219;;;;568093;253;24130;-84
2022/12/26 01:09:58;;;;;;;79.13;17.93;;;3.30;99.90;2.70;100215;;;;568254;253;24151;-83
2022/12/26 01:12:26;;;;;;;76.17;16.03;;;3.30;99.90;2.70;100204;;;;567947;253;24115;-83
2022/12/26 01:15:01;;;;;;;51.10;17.10;;;3.30;99.90;2.70;100201;;;;568504;253;24112;-84
2022/12/26 01:17:25;;;;;;;50.87;17.70;;;3.30;99.90;2.70;100202;;;;559794;253;24121;-84
2022/12/26 01:19:57;;;;;;;66.57;16.73;;;3.30;99.90;2.70;100192;;;;559564;253;24115;-84
2022/12/26 01:22:25;;;;;;;42.60;15.07;;;3.30;99.90;2.80;100189;;;;559240;253;24128;-88
2022/12/26 01:24:59;;;;;;;40.00;16.27;;;3.30;99.90;2.80;100182;;;;559760;253;24121;-84
2022/12/26 01:27:23;;;;;;;58.03;16.60;;;3.40;99.90;2.80;100178;;;;559055;253;24138;-83
2022/12/26 01:29:55;;;;;;;42.23;16.10;;;3.40;99.90;2.80;100178;;;;559853;253;24100;-82
2022/12/26 01:32:22;;;;;;;41.93;15.20;;;3.40;99.90;2.80;100170;;;;559005;253;24155;-83
2022/12/26 01:34:51;;;;;;;52.83;17.00;;;3.40;99.90;2.80;100168;;;;559395;253;24137;-83
2022/12/26 01:37:15;;;;;;;58.27;16.83;;;3.40;99.90;2.80;100159;;;;559345;253;24162;-84
2022/12/26 01:39:47;;;;;;;55.27;13.90;;;3.40;99.90;2.80;100160;;;;559487;252;24138;-81
2022/12/26 01:42:14;;;;;;;37.43;14.73;;;3.40;99.90;2.80;100166;;;;559262;253;24212;-82
2022/12/26 01:45:00;;;;;;;42.23;14.77;;;3.40;99.90;2.80;100168;;;;559387;253;24135;-81
2022/12/26 01:47:34;;;;;;;33.27;16.27;;;3.40;99.90;2.80;100172;;;;560178;253;24108;-81
2022/12/26 01:50:01;;;;;;;36.57;15.00;;;3.40;99.90;2.80;100167;;;;559105;252;24205;-85
2022/12/26 01:52:32;;;;;;;55.93;17.60;;;3.40;99.90;2.80;100166;;;;559621;253;24122;-82
2022/12/26 01:55:14;;;;;;;;;;;;;;;;;;;;;
2022/12/26 01:57:38;;;;;;;35.63;15.50;;;3.40;99.90;2.80;100147;;;;559080;253;24155;-84
2022/12/26 02:00:06;;;;;;;36.57;16.03;;;3.40;99.90;2.80;100131;;;;568580;250;24124;-84
2022/12/26 02:05:32;;;;;;;33.07;14.70;;;3.40;99.90;2.80;100124;;;;569490;252;24112;-83
2022/12/26 02:07:47;;;;;;;34.80;16.30;;;3.40;99.90;2.70;100099;;;;560536;253;24125;-83
2022/12/26 02:10:15;;;;;;;29.60;14.80;;;3.30;99.90;2.80;100101;;;;568255;253;24135;-83
2022/12/26 02:12:47;;;;;;;35.30;17.60;;;3.30;99.90;2.70;100097;;;;560300;253;24163;-82
2022/12/26 02:15:11;;;;;;;32.63;16.47;;;3.30;99.90;2.70;100096;;;;559614;253;24133;-83
2022/12/26 02:17:42;;;;;;;27.73;14.27;;;3.30;99.90;2.80;100096;;;;560123;253;24149;-84
2022/12/26 02:20:16;;;;;;;22.80;11.03;;;3.30;99.90;2.80;100094;;;;559289;253;24137;-85
2022/12/26 02:23:07;;;;;;;18.83;9.87;;;3.30;99.90;2.80;100089;;;;568237;249;24175;-84
2022/12/26 02:26:05;;;;;;;40.83;17.17;;;3.30;99.90;2.70;100065;;;;559888;253;24120;-85
2022/12/26 02:28:53;;;;;;;29.83;13.73;;;3.30;99.90;2.70;100068;;;;559716;253;24158;-80
2022/12/26 02:31:36;;;;;;;25.37;12.43;;;3.30;99.90;2.70;100070;;;;560089;253;24125;-83
2022/12/26 02:34:19;;;;;;;24.23;12.43;;;3.30;99.90;2.70;100063;;;;559709;253;24127;-85
2022/12/26 02:37:23;;;;;;;29.03;13.30;;;3.30;99.90;2.70;100043;;;;559793;253;24143;-82
2022/12/26 02:40:11;;;;;;;25.63;11.43;;;3.30;99.90;2.70;100034;;;;559566;253;24128;-81
2022/12/26 02:43:12;;;;;;;35.00;15.10;;;3.20;99.90;2.60;100030;;;;561304;253;24137;-82
2022/12/26 02:48:47;;;;;;;24.83;13.20;;;3.20;99.90;2.60;100002;;;;568908;253;24131;-84
2022/12/26 03:13:58;;;;;;;28.67;13.43;;;3.10;99.90;2.50;99917;;;;560756;253;24109;-82
2022/12/26 03:19:11;;;;;;;34.77;15.53;;;3.10;99.90;2.50;99922;;;;569149;253;24098;-81
2022/12/26 03:21:42;;;;;;;27.43;14.20;;;3.10;99.90;2.60;99900;;;;560558;253;24112;-82
2022/12/26 03:24:13;;;;;;;21.87;11.47;;;3.20;99.90;2.60;99899;;;;560563;253;24109;-81
2022/12/26 03:26:40;;;;;;;25.30;11.67;;;3.20;99.90;2.70;99903;;;;567189;253;24185;-83
2022/12/26 03:32:00;;;;;;;53.50;14.47;;;3.30;99.90;2.70;99878;;;;560420;253;24130;-84
2022/12/26 03:34:28;;;;;;;46.07;14.50;;;3.30;99.90;2.70;99877;;;;559795;253;24102;-83
2022/12/26 03:37:25;;;;;;;26.47;11.77;;;3.30;99.90;2.70;99867;;;;559808;253;24196;-81
2022/12/26 04:20:35;;;;;;;16.87;9.60;;;3.50;99.90;3.00;99795;;;;563853;253;25241;-82
2022/12/26 04:46:13;;;;;;;0.00;0.00;;;3.60;99.90;3.00;99758;;;;563778;252;24098;-83
2022/12/26 04:51:29;;;;;;;0.00;0.00;;;3.60;99.90;3.00;99757;;;;564028;253;24169;-83
2022/12/26 04:53:58;;;;;;;0.00;0.00;;;3.60;99.90;3.00;99750;;;;559158;253;24112;-82
2022/12/26 04:56:26;;;;;;;0.00;0.00;;;3.60;99.90;3.00;99727;;;;558762;253;24118;-82
2022/12/26 04:58:54;;;;;;;0.00;0.00;;;3.60;99.90;3.00;99728;;;;558606;253;24137;-83
2022/12/26 05:09:39;;;;;;;0.00;0.00;;;3.60;99.90;3.00;99711;;;;560170;253;24117;-82
2022/12/26 05:12:07;;;;;;;0.00;0.00;;;3.60;99.90;3.10;99696;;;;558830;253;25147;-83
2022/12/26 05:14:35;;;;;;;0.23;0.23;;;3.60;99.90;3.10;99685;;;;564110;252;24127;-83
2022/12/26 05:30:52;;;;;;;0.00;0.00;;;3.80;99.90;3.30;99684;;;;563713;252;24182;-85
2022/12/26 05:36:05;;;;;;;0.00;0.00;;;3.80;99.90;3.30;99675;;;;561343;253;24140;-82
2022/12/26 05:38:33;;;;;;;0.00;0.00;;;3.80;99.90;3.30;99672;;;;569060;252;24120;-84
2022/12/26 05:41:04;;;;;;;0.00;0.00;;;3.80;99.90;3.30;99659;;;;555351;253;46188;-87
2022/12/26 05:43:33;;;;;;;2.83;2.73;;;3.90;99.90;3.30;99651;;;;559864;253;24151;-85
2022/12/26 05:46:00;;;;;;;0.00;0.00;;;3.90;99.90;3.40;99646;;;;558465;253;24132;-86
2022/12/26 05:48:28;;;;;;;0.00;0.00;;;3.90;99.90;3.40;99641;;;;559740;253;24139;-85
2022/12/26 05:50:53;;;;;;;0.00;0.00;;;4.00;99.90;3.40;99640;;;;559901;253;24139;-88
2022/12/26 05:53:21;;;;;;;0.00;0.00;;;4.00;99.90;3.40;99641;;;;568401;253;24125;-85
2022/12/26 05:55:49;;;;;;;0.00;0.00;;;4.00;99.90;3.40;99642;;;;559009;253;24144;-86
2022/12/26 05:58:17;;;;;;;0.00;0.00;;;4.00;99.90;3.40;99629;;;;559064;253;24111;-85
2022/12/26 06:00:45;;;;;;;0.00;0.00;;;4.00;99.90;3.50;99625;;;;559000;253;24101;-86
2022/12/26 06:03:13;;;;;;;0.00;0.00;;;4.00;99.90;3.40;99610;;;;558516;253;24153;-85
2022/12/26 06:05:41;;;;;;;0.00;0.00;;;4.00;99.90;3.50;99611;;;;559160;253;24108;-85
2022/12/26 06:08:10;;;;;;;0.00;0.00;;;4.10;99.90;3.50;99612;;;;562015;248;24112;-84
2022/12/26 06:10:38;;;;;;;0.00;0.00;;;4.00;99.90;3.50;99598;;;;568961;252;24113;-84
2022/12/26 06:13:06;;;;;;;0.00;0.00;;;4.10;99.90;3.50;99601;;;;569041;253;24134;-84
2022/12/26 06:15:34;;;;;;;0.00;0.00;;;4.00;99.90;3.50;99590;;;;569218;253;24135;-84
2022/12/26 06:18:02;;;;;;;0.00;0.00;;;4.10;99.90;3.50;99590;;;;580121;248;24090;-86
2022/12/26 06:20:34;;;;;;;0.00;0.00;;;4.10;99.90;3.50;99584;;;;579046;248;24105;-84
2022/12/26 06:22:58;;;;;;;0.00;0.00;;;4.10;99.90;3.50;99577;;;;580675;244;24149;-85
2022/12/26 06:25:28;;;;;;;0.00;0.00;;;4.10;99.90;3.60;99577;;;;574686;246;24061;-85
2022/12/26 06:27:54;;;;;;;0.00;0.00;;;4.10;99.90;3.50;99569;;;;580357;244;24082;-85
2022/12/26 06:30:21;;;;;;;0.00;0.00;;;4.10;99.90;3.60;99556;;;;576387;246;24123;-84
2022/12/26 06:32:49;;;;;;;0.00;0.00;;;4.10;99.90;3.60;99562;;;;578818;246;24096;-84
2022/12/26 06:35:21;;;;;;;0.00;0.00;;;4.10;99.90;3.60;99551;;;;573932;247;35089;-86
2022/12/26 06:37:45;;;;;;;0.00;0.00;;;4.10;99.90;3.60;99554;;;;569970;249;24100;-84
2022/12/26 06:40:13;;;;;;;0.00;0.00;;;4.20;99.90;3.60;99540;;;;579507;248;24088;-84
2022/12/26 06:42:41;;;;;;;0.00;0.00;;;4.20;99.90;3.60;99543;;;;578913;248;24107;-85
2022/12/26 06:45:09;;;;;;;0.00;0.00;;;4.20;99.90;3.70;99538;;;;580556;244;35001;-84
2022/12/26 06:47:40;;;;;;;0.00;0.00;;;4.20;99.90;3.70;99537;;;;589887;242;24081;-85
2022/12/26 06:50:05;;;;;;;0.00;0.00;;;4.30;99.90;3.70;99536;;;;580517;243;24065;-84
2022/12/26 06:52:33;;;;;;;0.00;0.00;;;4.30;99.90;3.70;99522;;;;590798;243;24060;-85
2022/12/26 06:55:05;;;;;;;0.00;0.00;;;4.30;99.90;3.70;99525;;;;581730;243;24053;-86
2022/12/26 06:57:29;;;;;;;0.00;0.00;;;4.30;99.90;3.80;99524;;;;578294;248;24103;-86
2022/12/26 06:59:57;;;;;;;0.00;0.00;;;4.30;99.90;3.80;99517;;;;569024;251;24149;-84
2022/12/26 07:02:27;;;;;;;0.00;0.00;;;4.30;99.90;3.80;99518;;;;569391;248;24139;-86
2022/12/26 07:04:52;;;;;;;0.00;0.00;;;4.40;99.90;3.80;99507;;;;560507;253;24137;-87
2022/12/26 07:07:20;;;;;;;0.00;0.00;;;4.40;99.90;3.80;99510;;;;569449;251;24127;-85
2022/12/26 07:09:48;;;;;;;0.00;0.00;;;4.40;99.90;3.80;99501;;;;579955;247;24088;-87
2022/12/26 07:12:20;;;;;;;0.40;0.40;;;4.40;99.90;3.90;99503;;;;570253;248;24098;-86
2022/12/26 07:14:49;;;;;;;0.00;0.00;;;4.40;99.90;3.90;99490;;;;578857;247;24149;-87
2022/12/26 07:17:14;;;;;;;0.00;0.00;;;4.40;99.90;3.90;99492;;;;567877;248;24176;-86
2022/12/26 07:19:43;;;;;;;0.00;0.00;;;4.40;99.90;3.90;99484;;;;557414;253;24105;-86
2022/12/26 07:22:11;;;;;;;0.00;0.00;;;4.40;99.90;3.90;99490;;;;578869;246;24162;-86
2022/12/26 07:24:40;;;;;;;0.00;0.00;;;4.50;99.90;3.90;99496;;;;574178;248;35099;-85
2022/12/26 07:27:08;;;;;;;0.00;0.00;;;4.40;99.90;3.90;99485;;;;579004;246;24101;-84
2022/12/26 07:29:40;;;;;;;0.30;0.30;;;4.50;99.90;4.00;99490;;;;579040;247;24102;-87
2022/12/26 07:32:04;;;;;;;0.00;0.00;;;4.50;99.90;4.00;99480;;;;557731;254;24141;-85
2022/12/26 07:34:34;;;;;;;0.00;0.00;;;4.50;99.90;4.00;99478;;;;577500;248;24117;-85
2022/12/26 07:37:06;;;;;;;0.00;0.00;;;4.50;99.90;4.00;99468;;;;579993;247;24088;-86
2022/12/26 07:39:34;;;;;;;0.00;0.00;;;4.60;99.90;4.00;99466;;;;578896;248;24131;-86
2022/12/26 07:42:01;;;;;;;0.00;0.00;;;4.60;99.90;4.00;99468;;;;558193;254;24139;-86
2022/12/26 07:44:29;;;;;;;0.00;0.00;;;4.60;99.90;4.10;99468;;;;578341;248;24114;-85
2022/12/26 07:46:56;;;;;;;0.00;0.00;;;4.60;99.90;4.10;99468;;;;556637;253;24127;-85
2022/12/26 07:49:22;;;;;;;0.00;0.00;;;4.60;99.90;4.10;99468;;;;570112;249;24107;-86
2022/12/26 07:51:53;;;;;;;0.00;0.00;;;4.60;99.90;4.10;99459;;;;569689;248;24092;-85
2022/12/26 07:54:18;;;;;;;0.00;0.00;;;4.70;99.90;4.10;99448;;;;557399;254;25166;-90
2022/12/26 07:56:49;;;;;;;0.00;0.00;;;4.70;99.90;4.10;99451;;;;547971;259;24153;-85
2022/12/26 07:59:15;;;;;;;0.00;0.00;;;4.70;99.90;4.20;99458;;;;557842;253;24114;-79
2022/12/26 08:01:43;;;;;;;0.00;0.00;;;4.70;99.90;4.20;99458;;;;570297;248;24109;-80
2022/12/26 08:04:13;;;;;;;0.00;0.00;;;4.70;99.90;4.20;99447;;;;558242;254;25214;-81
2022/12/26 08:06:38;;;;;;;0.00;0.00;;;4.70;99.90;4.20;99452;;;;557515;254;24139;-83
2022/12/26 08:09:06;;;;;;;0.00;0.00;;;4.80;99.90;4.30;99439;;;;565672;254;24196;-83
2022/12/26 08:11:35;;;;;;;0.00;0.00;;;4.80;99.90;4.30;99437;;;;555303;253;24122;-82
2022/12/26 08:14:03;;;;;;;0.00;0.00;;;4.80;99.90;4.40;99444;;;;569466;248;24089;-83
2022/12/26 08:16:31;;;;;;;0.00;0.00;;;4.90;99.90;4.40;99429;;;;570100;245;24084;-81
2022/12/26 08:18:59;;;;;;;0.00;0.00;;;4.90;99.90;4.40;99430;;;;564534;254;24141;-82
2022/12/26 08:21:27;;;;;;;0.00;0.00;;;4.90;99.90;4.40;99434;;;;569994;248;24113;-81
2022/12/26 08:23:55;;;;;;;0.00;0.00;;;5.00;99.90;4.50;99418;;;;574539;248;24091;-81
2022/12/26 08:26:23;;;;;;;0.00;0.00;;;4.90;99.90;4.50;99404;;;;556709;253;25452;-81
2022/12/26 08:28:52;;;;;;;0.00;0.00;;;5.00;99.90;4.50;99428;;;;548376;254;24142;-79
2022/12/26 08:31:20;;;;;;;0.00;0.00;;;5.00;99.90;4.50;99429;;;;566038;248;24115;-81
2022/12/26 08:33:48;;;;;;;0.00;0.00;;;5.00;99.90;4.60;99415;;;;567457;248;24108;-81
2022/12/26 08:36:18;;;;;;;0.00;0.00;;;5.10;99.90;4.60;99414;;;;569067;244;24024;-82
2022/12/26 08:38:46;;;;;;;0.00;0.00;;;5.10;99.90;4.60;99406;;;;562405;249;24144;-83
2022/12/26 08:41:17;;;;;;;0.00;0.00;;;5.10;99.90;4.60;99413;;;;590011;235;24077;-82
2022/12/26 08:43:42;;;;;;;0.00;0.00;;;5.10;99.90;4.60;99421;;;;557540;248;24141;-82
2022/12/26 08:46:14;;;;;;;0.00;0.00;;;5.10;99.90;4.70;99424;;;;567280;248;24092;-81
2022/12/26 08:48:38;;;;;;;0.00;0.00;;;5.20;99.90;4.70;99410;;;;571226;248;24084;-82
2022/12/26 08:51:08;;;;;;;0.00;0.00;;;5.20;99.90;4.70;99410;;;;564742;248;24067;-81
2022/12/26 08:53:36;;;;;;;0.00;0.00;;;5.20;99.90;4.70;99408;;;;566849;249;24128;-81
2022/12/26 08:56:04;;;;;;;0.00;0.00;;;5.20;99.90;4.70;99406;;;;580980;245;24073;-82
2022/12/26 08:58:36;;;;;;;0.00;0.00;;;5.20;99.90;4.80;99389;;;;578208;245;24065;-82
2022/12/26 09:01:09;;;;;;;0.00;0.00;;;5.20;99.90;4.80;99398;;;;575058;249;24094;-83
2022/12/26 09:03:34;;;;;;;0.00;0.00;;;5.30;99.90;4.80;99387;;;;577371;245;24101;-81
2022/12/26 09:06:02;;;;;;;0.00;0.00;;;5.30;99.90;4.80;99379;;;;575957;249;24083;-81
2022/12/26 09:08:30;;;;;;;0.00;0.00;;;5.30;99.90;4.80;99370;;;;577952;245;24205;-81
2022/12/26 09:11:13;;;;;;;0.00;0.00;;;5.30;99.90;4.80;99374;;;;567804;250;24098;-82
2022/12/26 09:13:38;;;;;;;0.00;0.00;;;5.30;99.90;4.80;99377;;;;571442;248;24083;-81
2022/12/26 09:16:12;;;;;;;0.00;0.00;;;5.30;99.90;4.80;99366;;;;578721;245;25109;-81
2022/12/26 09:18:40;;;;;;;0.00;0.00;;;5.30;99.90;4.90;99366;;;;567458;248;24092;-82
2022/12/26 09:21:08;;;;;;;0.00;0.00;;;5.40;99.90;4.90;99370;;;;577158;245;24083;-81
2022/12/26 09:23:36;;;;;;;0.00;0.00;;;5.40;99.90;4.90;99368;;;;575961;245;24141;-80
2022/12/26 09:26:09;;;;;;;0.00;0.00;;;5.40;99.90;4.90;99365;;;;559819;253;24112;-80
2022/12/26 09:28:37;;;;;;;0.00;0.00;;;5.50;99.90;5.00;99365;;;;568695;249;24156;-81
2022/12/26 09:31:05;;;;;;;0.00;0.00;;;5.50;99.90;5.00;99362;;;;567984;250;24129;-82
2022/12/26 09:33:36;;;;;;;0.00;0.00;;;5.50;99.90;5.00;99369;;;;558076;255;24142;-81
2022/12/26 09:36:01;;;;;;;0.00;0.00;;;5.50;99.90;5.00;99367;;;;564218;251;24091;-82
2022/12/26 09:38:29;;;;;;;0.00;0.00;;;5.50;99.90;5.00;99366;;;;564405;253;24127;-83
2022/12/26 09:41:06;;;;;;;0.00;0.00;;;5.50;99.90;5.00;99374;;;;562567;251;24094;-82
2022/12/26 09:43:48;;;;;;;0.00;0.00;;;5.50;99.90;5.00;99366;;;;567537;248;24089;-81
2022/12/26 09:46:27;;;;;;;0.00;0.00;;;5.50;99.90;5.00;99371;;;;567326;250;24100;-82
2022/12/26 09:49:20;;;;;;;0.00;0.00;;;5.50;99.90;5.00;99367;;;;557856;255;24159;-82
2022/12/26 09:51:56;;;;;;;0.00;0.00;;;5.50;99.90;5.00;99363;;;;567796;244;24187;-81
2022/12/26 09:54:33;;;;;;;0.00;0.00;;;5.60;99.90;5.10;99372;;;;575299;249;24096;-81
2022/12/26 09:57:01;;;;;;;0.00;0.00;;;5.50;99.90;5.10;99364;;;;555319;255;24120;-82
2022/12/26 09:59:29;;;;;;;0.00;0.00;;;5.60;99.90;5.10;99359;;;;575741;248;24096;-81
2022/12/26 10:02:01;;;;;;;0.00;0.00;;;5.60;99.90;5.10;99359;;;;564416;248;24135;-81
2022/12/26 10:04:25;;;;;;;0.00;0.00;;;5.60;99.90;5.20;99356;;;;566988;250;24182;-81
2022/12/26 10:07:05;;;;;;;0.00;0.00;;;5.60;99.90;5.20;99354;;;;564460;249;25224;-82
2022/12/26 10:09:50;;;;;;;0.00;0.00;;;5.70;99.90;5.20;99362;;;;559627;253;24151;-82
2022/12/26 10:12:18;;;;;;;0.00;0.00;;;5.70;99.90;5.20;99358;;;;563851;249;24107;-81
2022/12/26 10:15:10;;;;;;;0.00;0.00;;;5.70;99.90;5.20;99358;;;;564498;248;24140;-82
2022/12/26 10:18:02;;;;;;;0.00;0.00;;;5.80;99.90;5.30;99351;;;;580093;243;24071;-81
2022/12/26 10:20:56;;;;;;;0.00;0.00;;;5.80;99.90;5.40;99348;;;;556930;251;25171;-88
2022/12/26 10:23:32;;;;;;;0.00;0.00;;;5.80;99.90;5.40;99356;;;;552887;251;24114;-84
2022/12/26 10:26:13;;;;;;;0.00;0.00;;;6.00;99.90;5.50;99347;;;;574119;245;24131;-89
2022/12/26 10:28:55;;;;;;;0.00;0.00;;;5.90;99.90;5.50;99349;;;;570670;244;24082;-82
2022/12/26 10:31:50;;;;;;;0.00;0.00;;;6.00;99.90;5.50;99343;;;;588025;239;24046;-81
2022/12/26 10:34:35;;;;;;;0.00;0.00;;;6.00;99.90;5.60;99337;;;;555123;250;24098;-81
2022/12/26 10:37:30;;;;;;;0.00;0.00;;;6.00;99.90;5.60;99347;;;;567622;248;24083;-82
2022/12/26 10:40:07;;;;;;;0.00;0.00;;;6.10;99.90;5.60;99339;;;;568277;243;24104;-81
2022/12/26 10:42:49;;;;;;;0.00;0.00;;;6.10;99.90;5.70;99336;;;;564045;246;24111;-80
2022/12/26 10:45:17;;;;;;;0.00;0.00;;;6.10;99.90;5.70;99331;;;;559167;250;24086;-79
2022/12/26 10:47:45;;;;;;;0.00;0.00;;;6.20;99.90;5.80;99334;;;;558934;251;24063;-82
2022/12/26 10:50:19;;;;;;;0.00;0.00;;;6.20;99.90;5.90;99329;;;;569993;248;24105;-81
2022/12/26 10:52:50;;;;;;;0.00;0.00;;;6.40;99.90;6.10;99326;;;;567699;248;24077;-80
2022/12/26 10:55:15;;;;;;;0.00;0.00;;;6.50;99.90;6.20;99329;;;;565987;248;24087;-79
2022/12/26 10:57:43;;;;;;;0.00;0.00;;;6.70;99.90;6.40;99330;;;;576993;248;24078;-80
2022/12/26 11:00:14;;;;;;;0.00;0.00;;;6.80;99.90;6.40;99323;;;;580424;245;24069;-80
2022/12/26 11:02:42;;;;;;;0.00;0.00;;;6.90;99.90;6.50;99325;;;;574944;248;24071;-81
2022/12/26 11:05:12;;;;;;;0.00;0.00;;;7.00;99.90;6.50;99318;;;;566569;248;24071;-81
2022/12/26 11:07:37;;;;;;;0.00;0.00;;;7.00;99.90;6.50;99321;;;;574262;245;24119;-81
2022/12/26 11:10:06;;;;;;;0.00;0.00;;;6.90;99.90;6.50;99316;;;;573534;246;24072;-81
2022/12/26 11:12:40;;;;;;;0.00;0.00;;;7.00;99.90;6.50;99315;;;;572351;245;24035;-78
2022/12/26 11:15:19;;;;;;;0.00;0.00;;;7.00;99.90;6.40;99307;;;;573885;247;24120;-78
2022/12/26 11:17:50;;;;;;;0.00;0.00;;;6.90;99.90;6.50;99314;;;;577553;245;24074;-82
2022/12/26 11:20:15;;;;;;;0.10;0.10;;;7.00;99.90;6.50;99308;;;;583007;244;24107;-79
2022/12/26 11:22:43;;;;;;;0.00;0.00;;;7.00;99.90;6.40;99298;;;;570036;249;24104;-86
2022/12/26 11:25:23;;;;;;;0.00;0.00;;;6.90;99.90;6.40;99299;;;;559475;253;24139;-81
2022/12/26 11:27:51;;;;;;;0.00;0.00;;;6.80;99.90;6.40;99291;;;;570141;248;24084;-84
2022/12/26 11:30:21;;;;;;;0.00;0.00;;;6.90;99.90;6.50;99313;;;;580558;244;24188;-82
2022/12/26 11:32:49;;;;;;;0.00;0.00;;;7.00;99.90;6.60;99304;;;;571041;248;24125;-80
2022/12/26 11:35:22;;;;;;;0.00;0.00;;;7.10;99.90;6.80;99313;;;;560821;250;24102;-84
2022/12/26 11:37:54;;;;;;;0.00;0.00;;;7.40;99.90;6.90;99315;;;;570429;248;24070;-85
2022/12/26 11:40:22;;;;;;;0.00;0.00;;;7.40;99.90;7.00;99308;;;;547956;259;24150;-83
2022/12/26 11:42:50;;;;;;;0.00;0.00;;;7.40;99.90;7.00;99306;;;;565111;248;24089;-84
2022/12/26 11:45:23;;;;;;;0.13;0.13;;;7.50;99.90;7.10;99295;;;;565386;249;24092;-82
2022/12/26 11:47:49;;;;;;;0.00;0.00;;;7.70;99.90;7.20;99294;;;;572489;246;24072;-83
2022/12/26 11:50:20;;;;;;;0.00;0.00;;;7.60;99.90;7.40;99291;;;;577061;244;24045;-82
2022/12/26 11:52:51;;;;;;;0.00;0.00;;;7.80;99.90;7.60;99287;;;;577323;245;24052;-81
2022/12/26 11:55:26;;;;;;;0.00;0.00;;;8.00;99.90;7.70;99285;;;;568195;248;24084;-81
2022/12/26 11:57:56;;;;;;;0.00;0.00;;;8.10;99.90;7.70;99289;;;;573691;248;24101;-82
2022/12/26 12:00:24;;;;;;;0.00;0.00;;;8.20;99.90;7.70;99296;;;;579044;248;24079;-82
2022/12/26 12:02:52;;;;;;;0.00;0.00;;;8.20;99.90;7.70;99286;;;;570733;248;24087;-82
2022/12/26 12:05:50;;;;;;;0.00;0.00;;;8.20;99.90;7.70;99293;;;;580886;244;24023;-83
2022/12/26 12:08:44;;;;;;;0.00;0.00;;;8.20;99.90;7.80;99311;;;;570081;249;35100;-81
2022/12/26 12:11:43;;;;;;;0.00;0.00;;;8.20;99.90;7.80;99307;;;;578137;245;24058;-83
2022/12/26 12:14:13;;;;;;;0.00;0.00;;;8.30;99.90;7.80;99309;;;;575445;247;24111;-81
2022/12/26 12:17:14;;;;;;;0.00;0.00;;;8.30;99.90;7.80;99310;;;;577800;245;24053;-81
2022/12/26 12:20:12;;;;;;;0.00;0.00;;;8.30;99.90;7.80;99319;;;;567581;250;24087;-80
2022/12/26 12:23:28;;;;;;;0.00;0.00;;;8.30;99.90;7.70;99324;;;;577673;245;24054;-80
2022/12/26 12:26:16;;;;;;;0.00;0.00;;;8.20;99.90;7.70;99337;;;;567645;250;24102;-78
2022/12/26 12:29:03;;;;;;;0.00;0.00;;;8.20;99.90;7.60;99334;;;;574508;248;24117;-81
2022/12/26 12:31:46;;;;;;;0.00;0.00;;;8.10;99.90;7.60;99328;;;;559432;253;24141;-83
2022/12/26 12:34:34;;;;;;;0.00;0.00;;;8.10;99.90;7.60;99341;;;;574260;248;24093;-83
2022/12/26 12:37:38;;;;;;;0.00;0.00;;;8.10;99.90;7.60;99342;;;;589411;239;24066;-82
2022/12/26 12:40:24;;;;;;;0.00;0.00;;;8.10;99.90;7.60;99351;;;;569153;253;24115;-78
2022/12/26 12:50:33;;;;;;;0.00;0.00;;;8.10;99.90;7.60;99359;;;;545716;242;24291;-81
2022/12/26 12:53:28;;;;;;;0.00;0.00;;;8.10;99.90;7.60;99351;;;;572294;248;24132;-79
2022/12/26 12:56:21;;;;;;;0.00;0.00;;;8.00;99.90;7.60;99356;;;;568158;248;24127;-77
2022/12/26 13:46:02;;;;;;;0.00;0.00;;;7.80;99.90;7.30;99380;;;;580138;237;24109;-73
2022/12/26 13:48:31;;;;;;;0.00;0.00;;;7.80;99.90;7.30;99387;;;;582968;246;24054;-74
2022/12/26 13:51:01;;;;;;;0.00;0.00;;;7.70;99.90;7.20;99388;;;;582405;246;25117;-74
2022/12/26 13:53:32;;;;;;;0.00;0.00;;;7.70;99.90;7.20;99389;;;;575791;247;24069;-75
2022/12/26 13:56:18;;;;;;;0.00;0.00;;;7.70;99.90;7.20;99395;;;;584008;244;24062;-74
2022/12/26 13:58:55;;;;;;;0.00;0.00;;;7.70;99.90;7.20;99398;;;;584647;245;24071;-73
2022/12/26 14:01:43;;;;;;;0.00;0.00;;;7.60;99.90;7.20;99399;;;;568996;248;24113;-73
2022/12/26 14:04:23;;;;;;;0.00;0.00;;;7.70;99.90;7.20;99402;;;;580682;247;24089;-73
2022/12/26 14:07:08;;;;;;;0.00;0.00;;;7.70;99.90;7.20;99397;;;;579612;247;24126;-72
2022/12/26 14:10:03;;;;;;;0.00;0.00;;;7.60;99.90;7.20;99388;;;;559109;253;24120;-73
2022/12/26 14:12:58;;;;;;;0.00;0.00;;;7.60;99.90;7.10;99396;;;;556233;246;24081;-74
2022/12/26 14:15:34;;;;;;;0.00;0.00;;;7.60;99.90;7.10;99396;;;;563561;248;24152;-74
2022/12/26 14:18:17;;;;;;;0.00;0.00;;;7.60;99.90;7.00;99402;;;;562224;252;24104;-75
2022/12/26 14:20:54;;;;;;;0.00;0.00;;;7.50;99.90;7.10;99398;;;;559763;251;24099;-73
2022/12/26 14:23:42;;;;;;;0.00;0.00;;;7.50;99.90;7.00;99400;;;;540750;262;24123;-72
2022/12/26 14:26:28;;;;;;;0.00;0.00;;;7.50;99.90;7.00;99397;;;;555248;253;24122;-73
2022/12/26 14:29:20;;;;;;;0.00;0.00;;;7.50;99.90;7.00;99397;;;;563440;251;24162;-74
2022/12/26 14:32:02;;;;;;;0.00;0.00;;;7.50;99.90;7.00;99402;;;;557737;253;24146;-74
2022/12/26 14:34:52;;;;;;;0.00;0.00;;;7.40;99.90;7.00;99406;;;;557585;253;24161;-74
2022/12/26 14:37:34;;;;;;;0.00;0.00;;;7.40;99.90;7.00;99402;;;;568366;253;24239;-74
2022/12/26 14:40:23;;;;;;;0.00;0.00;;;7.40;99.90;7.00;99405;;;;540130;262;24186;-72
2022/12/26 14:43:15;;;;;;;0.00;0.00;;;7.50;99.90;7.00;99402;;;;566245;253;24163;-75
2022/12/26 14:45:49;;;;;;;0.00;0.00;;;7.50;99.90;7.00;99405;;;;558928;253;24119;-78
2022/12/26 14:48:16;;;;;;;0.00;0.00;;;7.50;99.90;7.00;99409;;;;546771;260;24156;-73
2022/12/26 14:50:47;;;;;;;0.00;0.00;;;7.50;99.90;7.00;99412;;;;567183;252;24130;-77
2022/12/26 14:53:26;;;;;;;0.00;0.00;;;7.50;99.90;6.90;99410;;;;541326;259;35423;-78
2022/12/26 14:56:03;;;;;;;0.00;0.00;;;7.40;99.90;6.90;99424;;;;558219;254;24130;-75
2022/12/26 14:58:31;;;;;;;0.00;0.00;;;7.40;99.90;6.90;99434;;;;557588;254;24169;-77